createdAt,value
2023-06-30T04:57:34.381Z,16.52
2023-06-30T05:00:36.952Z,16.63
2023-06-30T05:03:39.932Z,16.33
2023-06-30T05:06:42.817Z,15.73
2023-06-30T05:09:45.501Z,16.55
2023-06-30T05:12:50.011Z,15.15
2023-06-30T05:15:52.602Z,14.30
2023-06-30T05:18:55.273Z,14.93
2023-06-30T05:21:57.975Z,13.98
2023-06-30T05:25:00.686Z,13.88
2023-06-30T05:28:04.682Z,13.25
2023-06-30T05:31:07.353Z,14.55
2023-06-30T05:34:16.397Z,13.95
2023-06-30T05:37:18.962Z,14.35
2023-06-30T05:40:21.567Z,12.27
2023-06-30T05:43:25.587Z,13.07
2023-06-30T05:46:28.223Z,12.25
2023-06-30T05:49:31.953Z,13.13
2023-06-30T05:52:34.503Z,11.43
2023-06-30T05:55:37.167Z,11.73
2023-06-30T05:58:41.880Z,11.93
2023-06-30T06:01:44.537Z,12.30
2023-06-30T06:04:47.275Z,11.07
2023-06-30T06:07:50.288Z,11.70
2023-06-30T06:10:52.847Z,11.13
2023-06-30T06:13:56.994Z,11.52
2023-06-30T06:16:59.687Z,11.73
2023-06-30T06:20:04.498Z,10.02
2023-06-30T06:23:07.099Z,10.65
2023-06-30T06:26:12.784Z,10.25
2023-06-30T06:29:22.676Z,10.77
2023-06-30T06:32:25.333Z,10.98
2023-06-30T06:35:28.015Z,10.73
2023-06-30T06:38:32.345Z,10.80
2023-06-30T06:41:34.930Z,11.45
2023-06-30T06:44:40.571Z,11.85
2023-06-30T06:48:22.255Z,11.93
2023-06-30T06:51:25.462Z,11.90
2023-06-30T06:54:29.249Z,13.00
2023-06-30T06:57:31.884Z,13.95
2023-06-30T07:00:36.558Z,13.80
2023-06-30T07:03:39.611Z,14.23
2023-06-30T07:06:42.326Z,14.20
2023-06-30T07:09:44.921Z,16.58
2023-06-30T07:12:47.538Z,16.27
2023-06-30T07:15:51.896Z,15.75
2023-06-30T07:18:54.620Z,16.05
2023-06-30T07:21:57.219Z,17.20
2023-06-30T07:25:03.640Z,17.05
2023-06-30T07:28:08.848Z,16.63
2023-06-30T07:31:12.825Z,17.88
2023-06-30T07:34:15.768Z,17.70
2023-06-30T07:37:18.389Z,17.77
2023-06-30T07:40:24.000Z,17.80
2023-06-30T07:43:27.139Z,18.17
2023-06-30T07:46:32.485Z,17.38
2023-06-30T07:49:35.241Z,16.17
2023-06-30T07:52:38.760Z,16.80
2023-06-30T07:55:41.294Z,16.17
2023-06-30T07:58:44.130Z,16.95
2023-06-30T08:01:48.098Z,17.02
2023-06-30T08:04:51.780Z,16.73
2023-06-30T08:07:54.557Z,17.40
2023-06-30T08:10:57.126Z,18.08
2023-06-30T08:14:03.881Z,19.65
2023-06-30T08:17:08.202Z,18.23
2023-06-30T08:20:12.714Z,19.40
2023-06-30T08:23:15.594Z,19.98
2023-06-30T08:26:18.207Z,19.80
2023-06-30T08:29:20.844Z,20.95
2023-06-30T08:32:24.734Z,21.02
2023-06-30T08:35:27.335Z,20.77
2023-06-30T08:38:29.919Z,20.30
2023-06-30T08:41:34.955Z,22.15
2023-06-30T08:44:38.724Z,22.23
2023-06-30T08:47:42.924Z,21.92
2023-06-30T08:50:46.800Z,20.38
2023-06-30T08:53:50.550Z,21.05
2023-06-30T08:56:56.586Z,19.05
2023-06-30T09:00:02.406Z,19.30
2023-06-30T09:03:10.484Z,18.50
2023-06-30T09:06:14.994Z,18.70
2023-06-30T09:09:27.778Z,18.65
2023-06-30T09:12:33.072Z,19.27
2023-06-30T09:15:36.549Z,17.48
2023-06-30T09:18:42.226Z,18.80
2023-06-30T09:21:45.421Z,16.30
2023-06-30T09:24:49.165Z,18.23
2023-06-30T09:27:52.271Z,18.30
2023-06-30T09:31:01.142Z,17.75
2023-06-30T09:34:12.853Z,18.58
2023-06-30T09:37:17.057Z,18.00
2023-06-30T09:40:25.465Z,16.77
2023-06-30T09:43:30.321Z,16.95
2023-06-30T09:46:34.639Z,16.17
2023-06-30T09:49:38.665Z,16.40
2023-06-30T09:52:42.990Z,15.63
2023-06-30T09:55:50.508Z,16.67
2023-06-30T09:58:57.920Z,16.45
2023-06-30T10:02:01.153Z,15.70
2023-06-30T10:05:05.395Z,15.75
2023-06-30T10:08:12.194Z,16.70
2023-06-30T10:11:14.869Z,15.90
2023-06-30T10:14:21.605Z,16.40
2023-06-30T10:17:26.968Z,16.83
2023-06-30T10:20:46.296Z,16.90
2023-06-30T10:23:57.464Z,17.50
2023-06-30T10:27:02.511Z,12.45
2023-06-30T10:30:10.926Z,11.57
2023-06-30T10:33:13.785Z,12.07
2023-06-30T10:36:19.462Z,12.90
2023-06-30T10:39:22.387Z,11.45
2023-06-30T10:42:28.509Z,12.07
2023-06-30T10:45:32.000Z,12.38
2023-06-30T10:48:34.654Z,12.85
2023-06-30T10:51:38.824Z,12.10
2023-06-30T10:54:43.337Z,12.40
2023-06-30T10:57:51.738Z,12.60
2023-06-30T11:01:07.762Z,13.65
2023-06-30T11:04:13.781Z,14.02
2023-06-30T11:07:20.248Z,11.65
2023-06-30T11:10:35.166Z,12.50
2023-06-30T11:13:38.491Z,13.23
2023-06-30T11:17:03.087Z,11.18
2023-06-30T11:20:13.576Z,12.27
2023-06-30T11:23:20.098Z,12.63
2023-06-30T11:26:22.730Z,12.23
2023-06-30T11:29:25.392Z,10.73
2023-06-30T11:32:29.370Z,11.13
2023-06-30T11:35:34.153Z,11.45
2023-06-30T11:38:44.794Z,9.75
2023-06-30T11:41:47.382Z,8.80
2023-06-30T11:44:51.074Z,8.90
2023-06-30T11:47:55.469Z,7.63
2023-06-30T11:50:58.067Z,7.85
2023-06-30T11:54:02.024Z,6.63
2023-06-30T11:57:05.529Z,6.85
2023-06-30T12:00:10.324Z,6.97
2023-06-30T12:03:16.825Z,7.00
2023-06-30T12:06:22.355Z,7.07
2023-06-30T12:09:26.384Z,6.90
2023-06-30T12:12:29.855Z,7.07
2023-06-30T12:15:33.199Z,5.30
2023-06-30T12:18:38.364Z,7.20
2023-06-30T12:21:52.735Z,6.40
2023-06-30T12:25:00.801Z,5.95
2023-06-30T12:28:06.850Z,6.05
2023-06-30T12:31:09.469Z,5.45
2023-06-30T12:34:12.174Z,3.35
2023-06-30T12:37:17.783Z,2.95
2023-06-30T12:40:21.721Z,2.95
2023-06-30T12:43:25.881Z,3.00
2023-06-30T12:46:28.617Z,3.33
2023-06-30T12:49:31.229Z,3.45
2023-06-30T12:52:33.849Z,3.17
2023-06-30T12:55:37.799Z,3.17
2023-06-30T12:58:40.327Z,3.10
2023-06-30T13:01:43.071Z,2.92
2023-06-30T13:04:45.739Z,3.53
2023-06-30T13:07:50.179Z,2.90
2023-06-30T13:10:54.207Z,2.45
2023-06-30T13:13:56.903Z,3.05
2023-06-30T13:16:59.526Z,2.30
2023-06-30T13:20:02.167Z,2.10
2023-06-30T13:23:14.399Z,2.63
2023-06-30T13:26:21.520Z,2.72
2023-06-30T13:29:24.077Z,2.92
2023-06-30T13:32:26.739Z,2.35
2023-06-30T13:35:29.498Z,2.80
2023-06-30T13:38:32.264Z,2.88
2023-06-30T13:41:37.451Z,2.38
2023-06-30T13:44:40.741Z,2.40
2023-06-30T13:47:43.312Z,2.35
2023-06-30T13:50:46.031Z,1.80
2023-06-30T13:53:48.830Z,1.90
2023-06-30T13:56:54.090Z,2.60
2023-06-30T13:59:56.762Z,2.20
2023-06-30T14:02:59.486Z,2.47
2023-06-30T14:06:02.176Z,2.05
2023-06-30T14:09:04.945Z,2.15
2023-06-30T14:12:10.018Z,2.00
2023-06-30T14:15:12.710Z,2.00
2023-06-30T14:18:15.412Z,2.25
2023-06-30T14:21:21.446Z,2.40
2023-06-30T14:24:24.105Z,1.98
2023-06-30T14:27:30.908Z,1.48
2023-06-30T14:30:35.424Z,2.00
2023-06-30T14:33:41.614Z,1.88
2023-06-30T14:36:47.332Z,1.80
2023-06-30T14:39:49.950Z,1.73
2023-06-30T14:42:53.835Z,1.75
2023-06-30T14:45:56.529Z,1.88
2023-06-30T14:48:59.167Z,1.70
2023-06-30T14:52:01.786Z,1.63
2023-06-30T14:55:04.688Z,2.17
2023-06-30T14:58:09.893Z,1.42
2023-06-30T15:01:14.653Z,1.02
2023-06-30T15:04:26.702Z,1.80
2023-06-30T15:07:33.322Z,1.60
2023-06-30T15:10:35.976Z,1.35
2023-06-30T15:13:43.498Z,1.40
2023-06-30T15:16:48.841Z,1.23
2023-06-30T15:19:53.935Z,1.27
2023-06-30T15:22:56.522Z,1.13
2023-06-30T15:26:01.046Z,1.23
2023-06-30T15:29:04.910Z,1.33
2023-06-30T15:32:07.719Z,1.25
2023-06-30T15:35:10.936Z,1.17
2023-06-30T15:38:13.513Z,1.23
2023-06-30T15:41:22.180Z,1.20
2023-06-30T15:44:26.765Z,1.13
2023-06-30T15:47:29.577Z,1.30
2023-06-30T15:50:32.863Z,1.38
2023-06-30T15:53:35.521Z,1.30
2023-06-30T15:56:38.067Z,1.42
2023-06-30T15:59:41.995Z,1.13
2023-06-30T16:02:44.578Z,1.60
2023-06-30T16:05:47.540Z,1.42
2023-06-30T16:08:50.316Z,1.42
2023-06-30T16:11:52.944Z,1.40
2023-06-30T16:14:56.843Z,1.30
2023-06-30T16:17:59.423Z,1.10
2023-06-30T16:21:02.048Z,0.93
2023-06-30T16:24:04.847Z,1.20
2023-06-30T16:27:07.462Z,0.88
2023-06-30T16:30:28.679Z,1.00
2023-06-30T16:33:33.865Z,1.48
2023-06-30T16:36:38.516Z,1.48
2023-06-30T16:39:41.874Z,1.20
2023-06-30T16:42:44.420Z,1.38
2023-06-30T16:45:48.556Z,1.48
2023-06-30T16:48:51.401Z,0.90
2023-06-30T16:51:53.989Z,0.98
2023-06-30T16:54:56.555Z,1.00
2023-06-30T16:57:59.182Z,1.55
2023-06-30T17:01:03.120Z,1.10
2023-06-30T17:04:05.899Z,1.20
2023-06-30T17:07:11.300Z,1.50
2023-06-30T17:10:14.828Z,1.30
2023-06-30T17:13:17.463Z,1.20
2023-06-30T17:16:23.928Z,1.35
2023-06-30T17:19:28.676Z,1.15
2023-06-30T17:22:31.611Z,1.42
2023-06-30T17:25:36.679Z,1.35
2023-06-30T17:28:39.630Z,1.60
2023-06-30T17:31:43.623Z,1.35
2023-06-30T17:34:46.221Z,1.50
2023-06-30T17:37:48.927Z,1.25
2023-06-30T17:40:51.605Z,1.30
2023-06-30T17:43:56.687Z,1.40
